Time;durP1;ratioP1;P1;durP2;ratioP2;P2;SDS_P1;SDS_P2;PMS_P1;PMS_P2;Temp;Humidity;BMP_temperature;BMP_pressure;BME280_temperature;BME280_humidity;BME280_pressure;Samples;Min_cycle;Max_cycle;Signal;HPM_P1;HPM_P2
2022/11/18 00:01:24;;;;;;;21.30;15.80;;;;;;;-0.94;78.62;99520.61;100537;1289;78756;-59
2022/11/18 00:03:54;;;;;;;22.90;15.90;;;;;;;-0.98;78.49;99518.16;100523;1295;99100;-60
2022/11/18 00:06:28;;;;;;;22.60;16.40;;;;;;;-1.02;78.64;99519.70;100471;1291;95624;-58
2022/11/18 00:09:01;;;;;;;23.70;16.20;;;;;;;-1.04;78.46;99518.17;100540;1295;81254;-58
2022/11/18 00:14:23;;;;;;;22.50;16.40;;;;;;;-1.08;78.50;99510.79;100491;1297;81156;-59
2022/11/18 00:16:58;;;;;;;25.40;16.50;;;;;;;-1.09;78.45;99512.48;100534;1291;97424;-59
2022/11/18 00:19:30;;;;;;;23.50;16.00;;;;;;;-1.09;78.42;99510.14;100503;1291;94883;-59
2022/11/18 00:22:00;;;;;;;24.00;16.80;;;;;;;-1.07;78.55;99512.27;100543;1291;83030;-60
2022/11/18 00:24:33;;;;;;;25.70;16.90;;;;;;;-1.03;78.79;99510.67;100503;1294;88378;-60
2022/11/18 00:27:07;;;;;;;22.00;16.60;;;;;;;-1.01;78.73;99512.20;100369;1291;81853;-60
2022/11/18 00:29:37;;;;;;;21.60;15.40;;;;;;;-0.95;78.74;99512.22;100544;1289;99082;-59
2022/11/18 00:32:09;;;;;;;22.60;16.40;;;;;;;-0.93;78.64;99509.34;100475;1298;94645;-59
2022/11/18 00:34:42;;;;;;;22.50;15.70;;;;;;;-0.89;78.53;99515.55;100507;1287;82096;-57
2022/11/18 00:37:11;;;;;;;23.90;16.20;;;;;;;-0.87;78.77;99514.87;100524;1298;88492;-57
2022/11/18 00:39:44;;;;;;;20.70;15.60;;;;;;;-0.88;78.73;99508.63;100532;1298;79101;-57
2022/11/18 00:45:07;;;;;;;24.20;15.90;;;;;;;-0.87;78.19;99504.71;100507;1290;95877;-60
2022/11/18 00:47:35;;;;;;;22.20;15.50;;;;;;;-0.88;77.81;99496.92;100523;1290;82261;-60
2022/11/18 00:50:11;;;;;;;21.80;15.70;;;;;;;-0.96;77.82;99495.56;100507;1298;88431;-58
2022/11/18 00:52:40;;;;;;;;;;;;;;;-0.98;77.87;99494.77;100561;1291;79432;-59
2022/11/18 00:55:13;;;;;;;22.80;14.90;;;;;;;-1.00;77.75;99496.45;100404;1294;96953;-59
2022/11/18 00:57:41;;;;;;;29.20;18.40;;;;;;;-1.03;77.66;99498.42;100531;1290;95380;-59
2022/11/18 01:00:16;;;;;;;34.40;20.50;;;;;;;-1.09;77.60;99500.03;100550;1297;82238;-59
2022/11/18 01:02:47;;;;;;;26.60;18.60;;;;;;;-1.09;77.72;99498.48;100542;1291;88388;-59
2022/11/18 01:05:19;;;;;;;26.00;17.70;;;;;;;-1.06;77.77;99495.19;100537;1290;81452;-58
2022/11/18 01:07:54;;;;;;;25.10;18.30;;;;;;;-1.11;77.42;99497.61;100476;1290;98985;-58
2022/11/18 01:10:25;;;;;;;26.20;18.20;;;;;;;-1.06;77.74;99497.19;100493;1291;95912;-59
2022/11/18 01:15:50;;;;;;;23.40;17.40;;;;;;;-0.97;77.80;99500.69;100526;1291;88961;-58
2022/11/18 01:18:25;;;;;;;23.90;16.80;;;;;;;-0.89;77.74;99497.71;100493;1290;80138;-59
2022/11/18 01:20:59;;;;;;;21.80;16.60;;;;;;;-0.84;77.78;99490.15;100545;1291;98908;-60
2022/11/18 01:23:37;;;;;;;24.00;17.50;;;;;;;-0.86;77.78;99491.09;100504;1291;95204;-60
2022/11/18 01:26:17;;;;;;;21.20;15.50;;;;;;;-0.82;77.79;99491.52;100551;1290;81415;-59
2022/11/18 01:28:46;;;;;;;22.20;15.50;;;;;;;-0.82;77.71;99490.20;100514;1290;87194;-59
2022/11/18 01:31:20;;;;;;;19.70;15.80;;;;;;;-0.86;77.63;99493.05;100544;1290;79534;-58
2022/11/18 01:33:52;;;;;;;20.70;15.40;;;;;;;-0.88;77.59;99490.71;100555;1289;97326;-57
2022/11/18 01:36:25;;;;;;;20.70;15.90;;;;;;;-0.94;77.53;99488.64;100598;1297;94634;-58
2022/11/18 01:38:59;;;;;;;21.50;16.60;;;;;;;-0.95;77.78;99489.44;100523;1289;82542;-58
2022/11/18 01:41:29;;;;;;;20.60;15.80;;;;;;;-0.96;77.72;99484.59;100524;1291;89307;-61
2022/11/18 01:44:03;;;;;;;23.70;16.10;;;;;;;-0.98;77.75;99485.23;100504;1291;82081;-60
2022/11/18 01:46:37;;;;;;;22.20;16.10;;;;;;;-0.98;77.82;99484.70;100494;1287;99260;-59
2022/11/18 01:49:07;;;;;;;;;;;;;;;-0.98;77.84;99481.71;100498;1291;94942;-59
2022/11/18 01:51:45;;;;;;;23.50;17.20;;;;;;;-1.00;77.90;99474.13;100370;1291;82618;-59
2022/11/18 01:54:25;;;;;;;23.50;15.90;;;;;;;-0.98;77.99;99470.08;100473;1290;87070;-59
2022/11/18 01:56:58;;;;;;;21.90;15.00;;;;;;;-0.94;78.03;99472.34;100515;1295;80400;-59
2022/11/18 01:59:35;;;;;;;20.30;14.50;;;;;;;-0.90;78.22;99468.48;100539;1290;97070;-60
2022/11/18 02:02:11;;;;;;;22.20;14.20;;;;;;;-0.85;78.27;99468.35;100502;1291;95037;-59
2022/11/18 02:04:44;;;;;;;21.30;15.40;;;;;;;-0.84;78.23;99465.56;100507;1291;82128;-58
2022/11/18 02:07:16;;;;;;;22.20;16.00;;;;;;;-0.81;78.28;99461.73;100523;1290;89144;-57
2022/11/18 02:09:48;;;;;;;20.10;14.50;;;;;;;-0.77;78.48;99451.54;100502;1291;79909;-59
2022/11/18 02:12:18;;;;;;;21.50;15.20;;;;;;;-0.79;78.42;99454.32;100518;1297;98050;-59
2022/11/18 02:14:51;;;;;;;20.90;14.60;;;;;;;-0.80;78.49;99456.89;100492;1291;95247;-59
2022/11/18 02:17:44;;;;;;;20.40;13.50;;;;;;;-0.82;78.40;99460.29;100512;1291;82600;-58
2022/11/18 02:20:38;;;;;;;20.30;13.70;;;;;;;-0.82;78.37;99459.39;100529;1291;88176;-59
2022/11/18 02:24:01;;;;;;;19.70;14.60;;;;;;;-0.85;78.28;99460.04;100510;1295;80006;-58
2022/11/18 02:27:21;;;;;;;16.40;13.50;;;;;;;-0.85;78.28;99459.88;100492;1290;98327;-58
2022/11/18 02:30:02;;;;;;;18.60;13.40;;;;;;;-0.88;78.30;99459.08;100365;1291;93426;-59
2022/11/18 02:32:38;;;;;;;16.70;13.70;;;;;;;-0.90;78.36;99457.88;100504;1290;82210;-59
2022/11/18 02:35:18;;;;;;;19.00;13.70;;;;;;;-0.92;78.29;99459.42;100535;1295;89586;-59
2022/11/18 02:37:51;;;;;;;18.50;13.70;;;;;;;-0.90;78.33;99464.01;100490;1291;81086;-60
2022/11/18 02:40:31;;;;;;;17.90;12.90;;;;;;;-0.86;78.56;99466.48;100511;1291;98356;-56
2022/11/18 02:43:06;;;;;;;17.40;13.30;;;;;;;-0.83;78.47;99468.72;100460;1298;94215;-57
2022/11/18 02:45:42;;;;;;;17.50;12.70;;;;;;;-0.83;78.61;99461.76;100510;1291;81672;-57
2022/11/18 02:48:14;;;;;;;15.60;12.60;;;;;;;-0.78;78.46;99464.20;100486;1290;88529;-58
2022/11/18 02:50:50;;;;;;;17.40;13.40;;;;;;;-0.76;78.43;99458.47;100518;1290;78490;-58
2022/11/18 02:53:24;;;;;;;18.00;12.60;;;;;;;-0.77;78.58;99458.36;100503;1292;98449;-58
2022/11/18 02:55:58;;;;;;;14.90;12.50;;;;;;;-0.77;78.63;99458.05;100536;1291;94276;-57
2022/11/18 02:58:32;;;;;;;16.70;12.10;;;;;;;-0.81;78.61;99456.61;100504;1284;82600;-58
2022/11/18 03:01:04;;;;;;;16.70;12.40;;;;;;;-0.80;78.44;99451.42;100555;1289;88280;-58
2022/11/18 03:03:36;;;;;;;18.00;13.00;;;;;;;-0.80;78.55;99455.84;100535;1291;80288;-59
2022/11/18 03:06:19;;;;;;;16.70;12.30;;;;;;;-0.84;78.67;99455.86;100524;1291;98851;-59
2022/11/18 03:08:52;;;;;;;18.20;12.70;;;;;;;-0.85;78.61;99456.91;100509;1289;94178;-59
2022/11/18 03:11:28;;;;;;;18.90;13.90;;;;;;;-0.87;78.64;99450.11;100509;1295;80649;-56
2022/11/18 03:14:07;;;;;;;;;;;;;;;-0.89;78.68;99452.64;100504;1291;89379;-57
2022/11/18 03:16:52;;;;;;;22.70;15.40;;;;;;;-0.93;78.80;99448.30;100511;1289;80407;-59
2022/11/18 03:19:38;;;;;;;24.70;17.10;;;;;;;-0.92;78.88;99446.56;100514;1291;99249;-57
2022/11/18 03:22:16;;;;;;;25.60;16.80;;;;;;;-0.86;78.85;99443.38;100502;1290;95261;-58
2022/11/18 03:24:52;;;;;;;25.40;17.40;;;;;;;-0.82;78.98;99446.34;100499;1290;83384;-60
2022/11/18 03:27:26;;;;;;;24.00;17.40;;;;;;;-0.80;78.96;99445.27;100485;1291;88236;-60
2022/11/18 03:30:00;;;;;;;;;;;;;;;-0.82;78.93;99443.52;100529;1291;81018;-59
2022/11/18 03:32:36;;;;;;;18.70;14.50;;;;;;;-0.82;79.06;99446.30;100531;1291;98294;-59
2022/11/18 03:35:13;;;;;;;19.20;14.70;;;;;;;-0.82;79.09;99446.11;100510;1291;94110;-59
2022/11/18 03:37:49;;;;;;;17.40;12.00;;;;;;;-0.83;79.02;99439.49;100528;1291;82543;-60
2022/11/18 03:40:26;;;;;;;14.70;11.00;;;;;;;-0.86;79.00;99440.69;100522;1290;87647;-57
2022/11/18 03:43:06;;;;;;;15.50;10.90;;;;;;;-0.87;78.94;99439.70;100528;1291;79597;-58
2022/11/18 03:45:43;;;;;;;14.60;10.10;;;;;;;-0.91;79.01;99437.79;100558;1289;98587;-58
2022/11/18 03:48:18;;;;;;;14.20;10.20;;;;;;;-0.97;79.02;99434.09;100512;1291;95241;-58
2022/11/18 03:50:55;;;;;;;14.20;9.20;;;;;;;-1.02;78.90;99433.86;100551;1289;82616;-58
2022/11/18 03:53:31;;;;;;;11.90;9.00;;;;;;;-1.07;78.86;99431.89;100520;1291;86364;-58
2022/11/18 03:56:12;;;;;;;12.70;9.00;;;;;;;-1.12;78.80;99430.44;100530;1289;80765;-57
2022/11/18 03:58:50;;;;;;;16.10;10.00;;;;;;;-1.19;78.73;99434.05;100504;1289;98636;-57
2022/11/18 04:01:29;;;;;;;14.30;10.40;;;;;;;-1.23;78.92;99437.67;100507;1297;93165;-60
2022/11/18 04:04:02;;;;;;;12.50;9.30;;;;;;;-1.23;79.08;99436.65;100533;1282;82788;-59
2022/11/18 04:06:46;;;;;;;13.50;10.30;;;;;;;-1.22;78.90;99435.89;100499;1292;89170;-58
2022/11/18 04:09:27;;;;;;;14.80;9.80;;;;;;;-1.21;79.06;99440.23;100481;1297;79818;-58
2022/11/18 04:12:03;;;;;;;13.60;9.70;;;;;;;-1.21;79.08;99443.35;100515;1287;98532;-59
2022/11/18 04:14:34;;;;;;;14.60;10.10;;;;;;;-1.18;78.94;99440.27;100473;1281;95838;-59
2022/11/18 04:17:09;;;;;;;13.20;9.90;;;;;;;-1.14;79.05;99443.80;100507;1298;82408;-58
2022/11/18 04:19:42;;;;;;;13.80;9.00;;;;;;;-1.13;79.10;99440.60;100493;1290;87938;-59
2022/11/18 04:22:16;;;;;;;13.40;8.80;;;;;;;-1.10;79.01;99440.06;100523;1282;79261;-59
2022/11/18 04:24:46;;;;;;;13.70;8.80;;;;;;;-1.10;79.00;99443.08;100525;1297;98254;-58
2022/11/18 04:27:15;;;;;;;13.30;8.80;;;;;;;-1.13;78.91;99444.45;100537;1294;94185;-58
2022/11/18 04:29:46;;;;;;;12.60;8.60;;;;;;;-1.20;79.15;99445.58;100541;1291;82925;-58
2022/11/18 04:32:18;;;;;;;12.60;8.60;;;;;;;-1.27;79.24;99445.48;100570;1290;86970;-58
2022/11/18 04:34:47;;;;;;;11.30;8.80;;;;;;;-1.28;79.26;99445.60;100547;1291;81333;-57
2022/11/18 04:37:19;;;;;;;11.70;7.90;;;;;;;-1.28;79.35;99440.32;100536;1297;98709;-57
2022/11/18 04:39:48;;;;;;;12.70;9.50;;;;;;;-1.28;79.41;99434.30;100507;1295;95566;-57
2022/11/18 04:42:18;;;;;;;12.30;8.40;;;;;;;-1.26;79.42;99433.81;100485;1289;83624;-58
2022/11/18 04:44:52;;;;;;;11.80;8.80;;;;;;;-1.24;79.59;99437.62;100497;1288;89016;-57
2022/11/18 04:47:26;;;;;;;12.90;8.90;;;;;;;-1.22;79.76;99432.67;100417;1294;80157;-56
2022/11/18 04:49:58;;;;;;;10.90;8.10;;;;;;;-1.23;79.81;99433.10;100507;1290;98207;-56
2022/11/18 04:52:30;;;;;;;11.70;9.00;;;;;;;-1.18;79.73;99439.61;100477;1298;96071;-55
2022/11/18 04:54:59;;;;;;;11.50;8.30;;;;;;;-1.15;79.68;99433.31;100561;1295;81351;-56
2022/11/18 04:57:36;;;;;;;12.20;8.40;;;;;;;-1.11;79.63;99433.31;100493;1292;88297;-57
2022/11/18 05:00:11;;;;;;;10.50;7.70;;;;;;;-1.10;79.95;99431.14;100507;1297;79741;-57
2022/11/18 05:02:40;;;;;;;13.00;8.10;;;;;;;-1.09;79.94;99428.88;100515;1291;97723;-58
2022/11/18 05:05:14;;;;;;;11.10;8.20;;;;;;;-1.07;79.82;99433.75;100498;1292;94281;-57
2022/11/18 05:07:50;;;;;;;12.00;8.70;;;;;;;-1.10;79.72;99435.13;100515;1291;83423;-58
2022/11/18 05:10:24;;;;;;;13.20;9.00;;;;;;;-1.11;79.73;99432.28;100508;1287;87842;-58
2022/11/18 05:12:55;;;;;;;10.90;7.90;;;;;;;-1.14;79.70;99431.11;100498;1297;80257;-59
2022/11/18 05:15:25;;;;;;;11.50;7.70;;;;;;;-1.18;79.70;99429.54;100518;1297;98213;-57
2022/11/18 05:17:55;;;;;;;9.80;7.10;;;;;;;-1.23;79.82;99432.74;100525;1297;94939;-56
2022/11/18 05:20:26;;;;;;;11.40;7.50;;;;;;;-1.25;79.73;99435.06;100524;1290;82718;-58
2022/11/18 05:23:00;;;;;;;11.80;7.50;;;;;;;-1.26;79.74;99433.61;100527;1292;89621;-59
2022/11/18 05:25:29;;;;;;;10.30;7.10;;;;;;;-1.25;80.01;99431.36;100516;1291;79277;-58
2022/11/18 05:28:03;;;;;;;11.80;7.20;;;;;;;-1.22;79.92;99432.33;100365;1293;98517;-58
2022/11/18 05:30:36;;;;;;;11.20;7.80;;;;;;;-1.21;79.96;99431.42;100474;1283;94650;-57
2022/11/18 05:33:07;;;;;;;9.70;7.70;;;;;;;-1.17;79.93;99428.92;100511;1297;82588;-57
2022/11/18 05:35:40;;;;;;;9.80;7.10;;;;;;;-1.17;80.11;99427.71;100505;1291;86885;-56
2022/11/18 05:38:09;;;;;;;9.00;6.20;;;;;;;-1.16;80.00;99428.27;100562;1290;81247;-55
2022/11/18 05:40:43;;;;;;;11.30;7.70;;;;;;;-1.19;79.95;99429.61;100517;1294;97334;-58
2022/11/18 05:43:15;;;;;;;;;;;;;;;-1.16;80.05;99423.30;100518;1290;92883;-57
2022/11/18 05:45:50;;;;;;;7.80;6.40;;;;;;;-1.16;80.09;99423.69;100557;1290;80765;-57
2022/11/18 05:48:20;;;;;;;9.70;6.20;;;;;;;-1.19;80.14;99421.33;100486;1297;88682;-57
2022/11/18 05:50:52;;;;;;;9.30;6.60;;;;;;;-1.22;80.08;99424.08;100542;1291;79092;-57
2022/11/18 05:53:25;;;;;;;9.10;7.00;;;;;;;-1.26;80.21;99423.90;100517;1297;98654;-58
2022/11/18 05:55:58;;;;;;;9.50;7.00;;;;;;;-1.30;80.20;99424.01;100559;1291;93771;-56
2022/11/18 05:58:30;;;;;;;12.30;7.30;;;;;;;-1.31;80.12;99424.02;100504;1290;83336;-56
2022/11/18 06:01:07;;;;;;;8.50;6.60;;;;;;;-1.36;80.06;99420.60;100524;1291;88773;-56
2022/11/18 06:03:40;;;;;;;10.70;6.90;;;;;;;-1.39;80.01;99422.24;100535;1297;79381;-56
2022/11/18 06:06:13;;;;;;;20.60;7.90;;;;;;;-1.39;79.88;99421.36;100524;1282;97062;-59
2022/11/18 06:08:49;;;;;;;30.10;9.30;;;;;;;-1.34;79.88;99423.04;100477;1290;95841;-58
2022/11/18 06:11:21;;;;;;;16.60;7.30;;;;;;;-1.32;79.89;99427.09;100521;1298;82018;-56
2022/11/18 06:14:00;;;;;;;11.50;6.40;;;;;;;-1.27;79.92;99426.61;100517;1290;88715;-56
2022/11/18 06:16:35;;;;;;;16.70;7.50;;;;;;;-1.23;79.81;99426.76;100501;1297;80825;-62
2022/11/18 06:19:07;;;;;;;16.90;7.30;;;;;;;-1.17;79.87;99427.70;100544;1290;97936;-58
2022/11/18 06:21:37;;;;;;;13.90;7.50;;;;;;;-1.18;79.82;99426.90;100484;1294;94867;-55
2022/11/18 06:24:08;;;;;;;10.90;6.40;;;;;;;-1.24;79.80;99426.51;100256;1297;81681;-56
2022/11/18 06:26:38;;;;;;;19.60;8.00;;;;;;;-1.23;79.88;99429.57;100515;1297;89294;-57
2022/11/18 06:29:12;;;;;;;19.40;9.70;;;;;;;-1.18;79.81;99426.36;100498;1297;77873;-56
2022/11/18 06:31:45;;;;;;;30.70;9.20;;;;;;;-1.20;79.53;99433.59;100507;1281;97349;-57
2022/11/18 06:34:15;;;;;;;17.00;7.50;;;;;;;-1.23;79.55;99438.09;100462;1297;94476;-57
2022/11/18 06:36:50;;;;;;;10.20;7.00;;;;;;;-1.25;79.67;99438.95;100500;1297;82397;-58
2022/11/18 06:39:20;;;;;;;13.00;7.30;;;;;;;-1.26;79.66;99440.10;100554;1291;89059;-56
2022/11/18 06:41:55;;;;;;;12.10;8.80;;;;;;;-1.28;79.70;99440.17;100545;1297;80649;-59
2022/11/18 06:44:26;;;;;;;15.40;8.80;;;;;;;-1.30;79.84;99438.91;100559;1281;96500;-57
2022/11/18 06:46:58;;;;;;;10.70;7.10;;;;;;;-1.31;79.86;99441.46;100521;1297;93400;-57
2022/11/18 06:49:29;;;;;;;14.50;7.90;;;;;;;-1.30;79.68;99443.68;100555;1288;81587;-57
2022/11/18 06:52:01;;;;;;;11.80;7.40;;;;;;;-1.28;79.80;99442.09;100473;1291;89197;-57
2022/11/18 06:54:32;;;;;;;12.50;8.20;;;;;;;-1.23;79.91;99444.45;100495;1288;81662;-57
2022/11/18 06:57:02;;;;;;;10.80;7.30;;;;;;;-1.21;79.85;99444.23;100473;1291;99254;-57
2022/11/18 06:59:31;;;;;;;10.80;7.40;;;;;;;-1.19;79.83;99449.21;100460;1294;95532;-58
2022/11/18 07:02:00;;;;;;;10.20;7.00;;;;;;;-1.20;79.95;99452.80;100492;1291;83333;-58
2022/11/18 07:04:30;;;;;;;34.40;9.30;;;;;;;-1.16;79.70;99448.42;100506;1291;88784;-57
2022/11/18 07:07:01;;;;;;;12.00;7.80;;;;;;;-1.10;79.53;99445.95;100516;1291;79919;-57
2022/11/18 07:09:32;;;;;;;20.50;8.40;;;;;;;-1.08;79.51;99453.17;100515;1295;98880;-57
2022/11/18 07:12:03;;;;;;;10.40;6.90;;;;;;;-1.09;79.37;99450.04;100515;1288;95333;-57
2022/11/18 07:14:32;;;;;;;16.10;7.10;;;;;;;-1.09;79.17;99451.28;100541;1297;83290;-56
2022/11/18 07:17:04;;;;;;;11.80;7.00;;;;;;;-1.07;79.30;99452.34;100497;1291;87828;-55
2022/11/18 07:19:32;;;;;;;11.10;6.30;;;;;;;-1.07;79.14;99450.27;100513;1291;79186;-57
2022/11/18 07:22:02;;;;;;;12.90;6.70;;;;;;;-1.06;78.91;99452.09;100502;1297;98428;-59
2022/11/18 07:24:31;;;;;;;8.90;6.50;;;;;;;-1.05;78.93;99455.02;100530;1298;95454;-59
2022/11/18 07:27:04;;;;;;;12.90;5.70;;;;;;;-1.06;78.72;99455.29;100428;1297;82958;-57
2022/11/18 07:29:36;;;;;;;10.60;6.50;;;;;;;-1.07;78.72;99454.83;100544;1298;88780;-57
2022/11/18 07:32:06;;;;;;;9.70;6.00;;;;;;;-1.02;78.76;99453.16;100510;1292;80891;-57
2022/11/18 07:34:36;;;;;;;11.90;6.40;;;;;;;-0.99;78.71;99458.67;100483;1291;99190;-57
2022/11/18 07:37:06;;;;;;;12.20;7.20;;;;;;;-0.92;78.81;99453.63;100390;1297;93800;-57
2022/11/18 07:39:40;;;;;;;8.60;5.30;;;;;;;-0.86;78.60;99454.67;100450;1297;82932;-57
2022/11/18 07:42:12;;;;;;;7.70;5.10;;;;;;;-0.81;78.37;99459.86;100373;1297;87753;-57
2022/11/18 07:44:44;;;;;;;10.00;5.70;;;;;;;-0.73;78.31;99459.84;100237;1298;79222;-56
2022/11/18 07:47:15;;;;;;;14.30;6.10;;;;;;;-0.60;78.42;99461.21;100401;1297;98308;-55
2022/11/18 07:49:45;;;;;;;8.10;5.80;;;;;;;-0.48;78.16;99460.13;100406;1297;93890;-54
2022/11/18 07:52:16;;;;;;;10.80;6.10;;;;;;;-0.44;78.14;99463.45;100409;1298;82571;-56
2022/11/18 07:54:46;;;;;;;9.30;6.30;;;;;;;-0.38;78.09;99466.30;100450;1290;86955;-58
2022/11/18 07:57:19;;;;;;;32.10;10.50;;;;;;;-0.36;77.59;99469.05;100414;1295;79265;-58
2022/11/18 07:59:48;;;;;;;63.00;15.30;;;;;;;-0.41;77.40;99465.45;100430;1297;97667;-55
2022/11/18 08:02:20;;;;;;;22.00;7.70;;;;;;;-0.40;77.51;99463.67;100412;1290;94959;-57
2022/11/18 08:04:56;;;;;;;36.20;10.30;;;;;;;-0.39;77.58;99465.65;100437;1297;82008;-56
2022/11/18 08:07:25;;;;;;;24.00;7.50;;;;;;;-0.36;77.45;99470.00;100431;1297;88405;-58
2022/11/18 08:09:55;;;;;;;14.40;6.40;;;;;;;-0.32;77.47;99473.88;100396;1297;79150;-58
2022/11/18 08:12:24;;;;;;;15.00;5.90;;;;;;;-0.33;77.21;99476.73;100439;1298;98710;-58
2022/11/18 08:14:56;;;;;;;48.80;11.70;;;;;;;-0.38;77.02;99484.52;100387;1297;95527;-57
2022/11/18 08:17:28;;;;;;;52.10;11.60;;;;;;;-0.44;76.57;99484.73;100393;1297;82128;-57
2022/11/18 08:19:58;;;;;;;50.40;10.60;;;;;;;-0.52;76.63;99487.92;100450;1291;88512;-59
2022/11/18 08:22:27;;;;;;;9.30;5.40;;;;;;;-0.50;76.95;99487.08;100422;1291;80191;-58
2022/11/18 08:25:00;;;;;;;11.50;5.90;;;;;;;-0.46;76.88;99491.46;100271;1293;98792;-57
2022/11/18 08:27:31;;;;;;;8.80;5.60;;;;;;;-0.44;76.84;99495.27;100422;1297;94091;-57
2022/11/18 08:30:00;;;;;;;7.10;4.90;;;;;;;-0.41;76.65;99495.27;100448;1297;80824;-57
2022/11/18 08:32:31;;;;;;;13.40;5.90;;;;;;;-0.39;76.82;99503.13;100431;1297;88144;-57
2022/11/18 08:35:02;;;;;;;33.50;8.70;;;;;;;-0.41;76.20;99505.09;100428;1297;80811;-58
2022/11/18 08:37:34;;;;;;;23.20;7.00;;;;;;;-0.46;76.37;99507.19;100467;1290;98626;-57
2022/11/18 08:40:11;;;;;;;14.00;6.60;;;;;;;-0.40;76.41;99507.52;100460;1296;95657;-58
2022/11/18 08:42:47;;;;;;;10.20;6.30;;;;;;;-0.38;76.26;99504.10;100433;1297;82405;-58
2022/11/18 08:45:21;;;;;;;10.00;5.50;;;;;;;-0.32;76.45;99507.84;100432;1290;88747;-56
2022/11/18 08:47:52;;;;;;;;;;;;;;;-0.32;76.30;99507.65;100420;1297;80169;-56
2022/11/18 08:50:23;;;;;;;8.50;5.10;;;;;;;-0.38;76.25;99507.27;100426;1297;99221;-62
2022/11/18 08:52:52;;;;;;;9.20;5.10;;;;;;;-0.46;76.00;99507.41;100407;1298;94488;-61
2022/11/18 08:55:24;;;;;;;9.00;5.00;;;;;;;-0.47;76.23;99509.20;100402;1296;82315;-58
2022/11/18 08:57:58;;;;;;;;;;;;;;;-0.46;76.40;99508.80;100394;1297;86711;-59
2022/11/18 09:00:27;;;;;;;7.00;4.80;;;;;;;-0.44;76.27;99512.70;100394;1297;76985;-57
2022/11/18 09:02:59;;;;;;;6.10;4.60;;;;;;;-0.45;76.38;99516.95;100406;1297;99084;-58
2022/11/18 09:05:28;;;;;;;6.90;5.60;;;;;;;-0.47;76.36;99516.65;100430;1297;94429;-56
2022/11/18 09:07:59;;;;;;;9.60;6.00;;;;;;;-0.46;76.23;99519.19;100416;1298;82959;-56
2022/11/18 09:10:33;;;;;;;8.80;5.50;;;;;;;-0.47;76.38;99512.07;100406;1297;89650;-58
2022/11/18 09:13:06;;;;;;;7.70;5.20;;;;;;;-0.43;76.36;99515.06;100430;1290;80785;-59
2022/11/18 09:15:37;;;;;;;8.80;5.90;;;;;;;-0.33;76.35;99519.05;100439;1298;96235;-60
2022/11/18 09:18:11;;;;;;;9.40;6.00;;;;;;;-0.24;76.53;99520.11;100386;1291;93872;-60
2022/11/18 09:20:42;;;;;;;8.00;5.60;;;;;;;-0.21;76.46;99518.82;100322;1293;82385;-60
2022/11/18 09:23:16;;;;;;;12.40;6.20;;;;;;;-0.15;76.37;99515.05;100386;1297;88124;-60
2022/11/18 09:25:59;;;;;;;7.90;6.10;;;;;;;-0.12;76.15;99511.24;100447;1291;79047;-56
2022/11/18 09:28:28;;;;;;;8.60;4.60;;;;;;;-0.19;76.04;99505.88;100431;1291;96305;-57
2022/11/18 09:30:59;;;;;;;10.60;5.90;;;;;;;-0.21;75.93;99506.21;100359;1297;93655;-58
2022/11/18 09:33:27;;;;;;;14.80;6.20;;;;;;;-0.22;75.67;99499.25;100411;1297;81072;-57
2022/11/18 09:36:00;;;;;;;22.10;6.50;;;;;;;-0.18;75.77;99495.10;100404;1291;87812;-59
2022/11/18 09:38:34;;;;;;;20.90;6.50;;;;;;;-0.14;75.63;99493.20;100406;1292;79732;-59
2022/11/18 09:41:14;;;;;;;13.70;8.10;;;;;;;-0.05;75.75;99493.25;100425;1297;99097;-61
2022/11/18 09:43:50;;;;;;;62.60;11.70;;;;;;;-0.07;75.47;99494.76;100408;1297;96044;-60
2022/11/18 09:46:36;;;;;;;26.10;9.30;;;;;;;-0.08;75.54;99494.37;100443;1297;80982;-57
2022/11/18 09:49:23;;;;;;;10.00;5.90;;;;;;;-0.10;75.53;99493.17;100393;1297;87538;-59
2022/11/18 09:52:02;;;;;;;;;;;;;;;-0.11;75.57;99494.86;100415;1297;80419;-59
2022/11/18 09:54:36;;;;;;;7.90;5.70;;;;;;;-0.09;75.41;99490.70;100412;1298;100103;-60
2022/11/18 09:57:18;;;;;;;12.70;5.80;;;;;;;-0.04;75.52;99494.00;100406;1291;94021;-61
2022/11/18 09:59:48;;;;;;;12.10;6.20;;;;;;;-0.03;75.43;99496.04;100431;1297;80614;-59
2022/11/18 10:02:43;;;;;;;9.20;5.70;;;;;;;-0.03;75.48;99492.59;100410;1292;88100;-59
2022/11/18 10:05:22;;;;;;;13.50;7.50;;;;;;;0.04;75.47;99487.04;100424;1297;80580;-60
2022/11/18 10:08:03;;;;;;;7.70;5.50;;;;;;;0.11;75.26;99491.31;100288;1300;98217;-60
2022/11/18 10:11:00;;;;;;;11.00;5.80;;;;;;;0.04;74.58;99498.75;100383;1297;95265;-61
2022/11/18 10:13:46;;;;;;;9.00;5.80;;;;;;;0.06;74.53;99497.34;100411;1298;79991;-61
2022/11/18 10:16:36;;;;;;;15.30;8.20;;;;;;;0.15;74.65;99497.98;100420;1290;87296;-60
2022/11/18 10:19:19;;;;;;;13.10;7.20;;;;;;;0.31;74.62;99501.73;100434;1297;79594;-60
2022/11/18 10:22:08;;;;;;;10.00;6.50;;;;;;;0.45;74.51;99499.36;100400;1297;99776;-59
2022/11/18 10:24:45;;;;;;;37.10;10.80;;;;;;;0.66;74.50;99497.89;100383;1290;94808;-59
2022/11/18 10:27:17;;;;;;;30.20;9.30;;;;;;;0.72;74.17;99500.65;100413;1294;82122;-58
2022/11/18 10:29:53;;;;;;;13.40;5.70;;;;;;;0.75;73.74;99498.89;100359;1297;88281;-59
2022/11/18 10:32:23;;;;;;;10.10;4.80;;;;;;;0.72;73.62;99505.80;100423;1290;80219;-59
2022/11/18 10:34:56;;;;;;;20.30;7.10;;;;;;;0.75;73.44;99506.00;100396;1298;97734;-60
2022/11/18 10:37:37;;;;;;;33.80;7.90;;;;;;;0.75;72.67;99507.80;100390;1293;92323;-61
2022/11/18 10:40:30;;;;;;;53.20;11.20;;;;;;;0.71;73.14;99504.45;100437;1297;83264;-61
2022/11/18 10:43:06;;;;;;;36.90;10.00;;;;;;;0.61;73.06;99506.33;100421;1297;89020;-61
2022/11/18 10:45:40;;;;;;;12.90;5.70;;;;;;;0.54;73.10;99508.73;100401;1297;79345;-59
2022/11/18 10:48:19;;;;;;;44.80;10.80;;;;;;;0.50;72.84;99514.95;100410;1291;99405;-59
2022/11/18 10:50:50;;;;;;;28.70;6.10;;;;;;;0.40;72.24;99523.61;100424;1297;95483;-59
2022/11/18 10:53:34;;;;;;;15.40;4.80;;;;;;;0.30;72.02;99525.02;100419;1291;82040;-58
2022/11/18 10:56:14;;;;;;;17.60;5.00;;;;;;;0.37;72.42;99525.98;100420;1297;89612;-59
2022/11/18 10:58:49;;;;;;;6.00;3.40;;;;;;;0.39;71.65;99531.44;100372;1297;79605;-57
2022/11/18 11:01:25;;;;;;;9.70;3.70;;;;;;;0.23;71.34;99529.46;100416;1297;98295;-57
2022/11/18 11:04:13;;;;;;;12.70;4.50;;;;;;;0.20;71.39;99539.34;100406;1296;94555;-57
2022/11/18 11:06:45;;;;;;;6.40;4.50;;;;;;;0.20;71.34;99542.70;100265;1300;82306;-57
2022/11/18 11:09:30;;;;;;;11.50;3.50;;;;;;;0.20;71.39;99541.94;100357;1296;89043;-57
2022/11/18 11:12:12;;;;;;;5.20;3.20;;;;;;;0.26;71.53;99546.00;100454;1297;79432;-57
2022/11/18 11:14:50;;;;;;;7.10;3.80;;;;;;;0.29;71.07;99545.90;100408;1285;99928;-56
2022/11/18 11:17:30;;;;;;;8.10;3.30;;;;;;;0.33;71.04;99549.75;100445;1299;94533;-55
2022/11/18 11:20:14;;;;;;;4.00;2.90;;;;;;;0.34;71.05;99544.69;100434;1292;82255;-59
2022/11/18 11:22:48;;;;;;;3.90;3.20;;;;;;;0.38;71.13;99543.09;100406;1291;88413;-58
2022/11/18 11:25:32;;;;;;;5.70;3.40;;;;;;;0.37;71.05;99538.05;100397;1295;79916;-58
2022/11/18 11:28:15;;;;;;;6.90;3.40;;;;;;;0.38;71.14;99538.49;100442;1294;97729;-59
2022/11/18 11:31:01;;;;;;;9.60;3.90;;;;;;;0.41;71.22;99536.78;100425;1297;96200;-55
2022/11/18 11:33:49;;;;;;;9.10;3.90;;;;;;;0.34;70.91;99536.58;100422;1298;81527;-57
2022/11/18 11:36:33;;;;;;;4.90;2.90;;;;;;;0.26;70.84;99537.33;100412;1297;88207;-58
2022/11/18 11:39:37;;;;;;;5.80;3.80;;;;;;;0.19;70.81;99538.00;100427;1296;79753;-58
2022/11/18 11:42:23;;;;;;;10.00;4.00;;;;;;;0.21;71.04;99536.59;100394;1298;100362;-57
2022/11/18 11:45:13;;;;;;;10.30;4.00;;;;;;;0.27;71.01;99536.29;100409;1292;95961;-58
2022/11/18 11:48:14;;;;;;;5.20;3.40;;;;;;;0.31;71.12;99532.95;100423;1297;83042;-58
2022/11/18 11:50:59;;;;;;;5.80;3.90;;;;;;;0.30;70.80;99535.36;100408;1297;86857;-60
2022/11/18 11:53:53;;;;;;;6.70;3.90;;;;;;;0.25;70.73;99533.48;100387;1291;80101;-59
2022/11/18 11:56:33;;;;;;;7.20;3.70;;;;;;;0.25;70.61;99543.13;100400;1297;100098;-59
2022/11/18 11:59:34;;;;;;;6.30;3.30;;;;;;;0.25;70.48;99537.92;100351;1291;94035;-59
2022/11/18 12:02:46;;;;;;;6.70;4.10;;;;;;;0.25;70.77;99537.95;100391;1291;81733;-60
2022/11/18 12:05:33;;;;;;;7.90;3.70;;;;;;;0.28;70.44;99544.77;100417;1297;88530;-58